Time;durP1;ratioP1;P1;durP2;ratioP2;P2;SDS_P1;SDS_P2;PMS_P1;PMS_P2;Temp;Humidity;BMP_temperature;BMP_pressure;BME280_temperature;BME280_humidity;BME280_pressure;Samples;Min_cycle;Max_cycle;Signal;HPM_P1;HPM_P2
2021/05/03 00:00:41;;;;;;;7.57;5.97;;;;;;;9.71;100.00;102047.92;1891771;76;26621;-74
2021/05/03 00:03:11;;;;;;;7.43;5.73;;;;;;;9.67;100.00;102045.36;1891862;74;26206;-73
2021/05/03 00:05:45;;;;;;;7.07;5.03;;;;;;;9.70;100.00;102044.30;1891926;76;26178;-73
2021/05/03 00:08:12;;;;;;;6.17;5.57;;;;;;;9.62;100.00;102044.72;1891859;74;26239;-73
2021/05/03 00:10:42;;;;;;;7.70;6.17;;;;;;;9.61;100.00;102045.80;1891851;76;26189;-74
2021/05/03 00:13:12;;;;;;;6.77;5.63;;;;;;;9.64;100.00;102045.29;1891775;76;26244;-74
2021/05/03 00:15:41;;;;;;;6.60;5.50;;;;;;;9.66;100.00;102049.22;1891787;76;26181;-74
2021/05/03 00:18:12;;;;;;;6.93;6.23;;;;;;;9.55;100.00;102046.24;1891850;76;26260;-74
2021/05/03 00:20:43;;;;;;;7.10;5.63;;;;;;;9.68;100.00;102047.86;1891824;76;26247;-74
2021/05/03 00:23:13;;;;;;;6.17;5.30;;;;;;;9.61;100.00;102052.73;1859399;77;26205;-74
2021/05/03 00:25:44;;;;;;;7.47;5.67;;;;;;;9.48;100.00;102051.66;1901295;75;26206;-74
2021/05/03 00:28:13;;;;;;;6.23;5.60;;;;;;;9.49;100.00;102047.26;1887385;76;26213;-74
2021/05/03 00:30:43;;;;;;;6.70;5.93;;;;;;;9.39;100.00;102046.20;1874672;76;26638;-74
2021/05/03 00:33:13;;;;;;;7.77;5.70;;;;;;;9.35;100.00;102046.41;1872283;77;26205;-74
2021/05/03 00:35:43;;;;;;;6.87;5.80;;;;;;;9.22;100.00;102050.86;1872264;77;26274;-76
2021/05/03 00:38:12;;;;;;;6.13;5.53;;;;;;;9.25;100.00;102044.27;1872271;77;26669;-74
2021/05/03 00:40:43;;;;;;;6.10;5.57;;;;;;;9.20;100.00;102047.52;1872290;77;26206;-73
2021/05/03 00:43:18;;;;;;;7.00;6.20;;;;;;;9.19;100.00;102045.82;1872195;77;26201;-74
2021/05/03 00:45:44;;;;;;;8.07;5.30;;;;;;;9.05;100.00;102046.11;1871961;75;26754;-74
2021/05/03 00:48:14;;;;;;;6.70;6.00;;;;;;;9.15;100.00;102044.09;1872340;77;26200;-74
2021/05/03 00:50:45;;;;;;;6.63;5.87;;;;;;;8.93;100.00;102048.08;1872229;77;26197;-74
2021/05/03 00:53:15;;;;;;;7.40;6.30;;;;;;;8.93;100.00;102050.84;1872370;77;26193;-74
2021/05/03 00:55:46;;;;;;;6.47;5.70;;;;;;;8.93;100.00;102050.00;1872316;77;26209;-74
2021/05/03 00:58:16;;;;;;;6.60;5.90;;;;;;;8.78;100.00;102045.50;1872337;77;26205;-74
2021/05/03 01:00:46;;;;;;;7.27;5.83;;;;;;;8.76;100.00;102042.16;1872216;77;26202;-74
2021/05/03 01:03:16;;;;;;;7.17;5.70;;;;;;;8.61;100.00;102039.87;1872239;75;26222;-73
2021/05/03 01:05:46;;;;;;;6.23;5.63;;;;;;;8.80;100.00;102035.03;1872231;77;26656;-75
2021/05/03 01:08:16;;;;;;;6.47;5.77;;;;;;;8.58;100.00;102041.75;1872183;77;26656;-74
2021/05/03 01:10:45;;;;;;;6.20;5.60;;;;;;;8.46;100.00;102037.63;1872356;77;26280;-74
2021/05/03 01:13:15;;;;;;;8.03;6.17;;;;;;;8.39;100.00;102035.50;1872250;77;26201;-74
2021/05/03 01:15:45;;;;;;;6.33;5.40;;;;;;;8.33;100.00;102032.88;1872338;76;26197;-74
2021/05/03 01:18:15;;;;;;;6.37;5.70;;;;;;;8.27;100.00;102040.72;1872327;77;26201;-74
2021/05/03 01:20:45;;;;;;;6.40;5.80;;;;;;;7.94;100.00;102043.54;1872338;76;26640;-73
2021/05/03 01:23:14;;;;;;;6.90;6.20;;;;;;;7.89;100.00;102048.94;1872251;77;26193;-74
2021/05/03 01:25:44;;;;;;;7.20;6.00;;;;;;;7.82;100.00;102045.98;1872140;77;26749;-73
2021/05/03 01:28:14;;;;;;;7.53;5.80;;;;;;;7.74;100.00;102046.61;1872114;76;26323;-74
2021/05/03 01:30:46;;;;;;;6.27;5.30;;;;;;;7.56;100.00;102043.10;1872301;77;26209;-74
2021/05/03 01:33:18;;;;;;;7.47;6.00;;;;;;;7.55;100.00;102044.17;1872242;76;26229;-74
2021/05/03 01:35:49;;;;;;;6.60;5.57;;;;;;;7.44;100.00;102038.93;1872241;77;26213;-76
2021/05/03 01:38:19;;;;;;;7.63;5.90;;;;;;;7.25;100.00;102038.12;1872109;77;26664;-74
2021/05/03 01:40:49;;;;;;;7.00;6.30;;;;;;;7.19;100.00;102045.11;1872113;77;26275;-74
2021/05/03 01:43:21;;;;;;;6.53;5.90;;;;;;;7.26;100.00;102037.59;1872230;77;26216;-74
2021/05/03 01:45:53;;;;;;;6.90;5.83;;;;;;;7.25;100.00;102039.52;1872125;77;26259;-74
2021/05/03 01:48:25;;;;;;;7.93;6.00;;;;;;;7.29;100.00;102035.20;1872285;77;26373;-74
2021/05/03 01:50:56;;;;;;;7.03;5.80;;;;;;;7.13;100.00;102036.39;1872254;77;26204;-75
2021/05/03 01:53:27;;;;;;;7.27;5.70;;;;;;;7.04;100.00;102036.41;1872162;77;26633;-75
2021/05/03 01:55:59;;;;;;;6.57;5.90;;;;;;;6.96;100.00;102041.72;1872171;77;26202;-74
2021/05/03 01:58:29;;;;;;;6.70;6.00;;;;;;;7.04;100.00;102033.11;1872213;77;26283;-74
2021/05/03 02:01:00;;;;;;;6.47;5.73;;;;;;;7.04;100.00;102037.79;1872107;77;26275;-74
2021/05/03 02:03:31;;;;;;;7.70;6.43;;;;;;;6.88;100.00;102034.29;1872132;75;26228;-74
2021/05/03 02:06:02;;;;;;;6.53;5.93;;;;;;;6.86;100.00;102038.12;1872189;77;26236;-74
2021/05/03 02:08:33;;;;;;;7.00;5.47;;;;;;;6.71;100.00;102034.08;1872225;77;26244;-74
2021/05/03 02:11:02;;;;;;;6.43;5.50;;;;;;;6.58;100.00;102039.75;1872241;77;26274;-74
2021/05/03 02:13:34;;;;;;;6.97;6.23;;;;;;;6.61;100.00;102031.00;1872243;77;26196;-74
2021/05/03 02:16:04;;;;;;;7.33;6.13;;;;;;;6.59;100.00;102033.98;1872314;77;26344;-74
2021/05/03 02:18:35;;;;;;;7.23;5.73;;;;;;;6.70;100.00;102033.77;1872162;77;26263;-74
2021/05/03 02:21:05;;;;;;;7.33;5.77;;;;;;;6.77;100.00;102033.13;1872149;77;26201;-74
2021/05/03 02:23:34;;;;;;;8.23;6.00;;;;;;;6.82;100.00;102034.14;1872138;77;26279;-74
2021/05/03 02:26:04;;;;;;;6.17;5.57;;;;;;;6.82;100.00;102034.67;1872140;77;26632;-74
2021/05/03 02:28:34;;;;;;;6.93;6.03;;;;;;;6.81;100.00;102028.30;1886159;75;26225;-74
2021/05/03 02:31:04;;;;;;;6.70;5.53;;;;;;;6.74;100.00;102029.47;1891855;76;26695;-74
2021/05/03 02:33:34;;;;;;;5.90;5.20;;;;;;;6.77;100.00;102028.99;1891794;76;26175;-74
2021/05/03 02:36:05;;;;;;;6.70;5.47;;;;;;;7.00;100.00;102029.66;1891872;76;26182;-74
2021/05/03 02:38:34;;;;;;;6.63;5.73;;;;;;;6.84;100.00;102030.63;1891889;76;26639;-74
2021/05/03 02:41:04;;;;;;;6.17;5.57;;;;;;;6.83;100.00;102021.17;1891905;76;26309;-74
2021/05/03 02:43:34;;;;;;;5.90;5.30;;;;;;;6.95;100.00;102014.31;1891873;76;26190;-74
2021/05/03 02:46:04;;;;;;;6.33;5.60;;;;;;;7.30;100.00;102007.88;1891866;76;26691;-74
2021/05/03 02:48:34;;;;;;;5.00;4.50;;;;;;;7.57;100.00;102007.47;1891859;76;26166;-74
2021/05/03 02:51:03;;;;;;;6.07;5.47;;;;;;;7.61;100.00;102001.77;1891870;76;26598;-74
2021/05/03 02:53:33;;;;;;;6.00;5.30;;;;;;;7.67;100.00;101999.41;1891943;76;26215;-74
2021/05/03 02:56:03;;;;;;;5.93;5.00;;;;;;;7.62;100.00;101994.59;1891843;76;26656;-73
2021/05/03 02:58:33;;;;;;;5.67;4.70;;;;;;;7.56;100.00;101994.17;1891970;76;26269;-74
2021/05/03 03:01:03;;;;;;;6.27;5.17;;;;;;;7.53;100.00;101990.48;1891838;76;26187;-74
2021/05/03 03:03:32;;;;;;;5.57;5.03;;;;;;;7.64;100.00;101985.53;1891743;74;26688;-74
2021/05/03 03:06:02;;;;;;;5.77;4.73;;;;;;;7.65;100.00;101988.61;1891829;76;26202;-74
2021/05/03 03:08:32;;;;;;;5.13;4.63;;;;;;;7.67;100.00;101983.66;1891774;76;26606;-74
2021/05/03 03:11:02;;;;;;;6.30;5.33;;;;;;;7.68;100.00;101978.98;1891835;76;26279;-74
2021/05/03 03:13:32;;;;;;;6.27;5.17;;;;;;;7.67;100.00;101980.90;1891756;76;26809;-74
2021/05/03 03:16:01;;;;;;;6.60;5.20;;;;;;;7.73;100.00;101979.11;1891944;76;26229;-74
2021/05/03 03:18:32;;;;;;;5.30;4.80;;;;;;;7.60;100.00;101976.03;1891840;76;26704;-74
2021/05/03 03:21:02;;;;;;;6.70;6.00;;;;;;;7.55;100.00;101970.37;1891849;76;26649;-74
2021/05/03 03:23:32;;;;;;;6.47;5.87;;;;;;;7.76;100.00;101977.24;1891778;76;26186;-74
2021/05/03 03:26:03;;;;;;;6.63;5.57;;;;;;;7.63;100.00;101972.78;1891849;76;26190;-74
2021/05/03 03:28:32;;;;;;;6.73;5.53;;;;;;;7.55;100.00;101972.28;1891812;76;26226;-74
2021/05/03 03:31:03;;;;;;;7.27;6.33;;;;;;;7.52;100.00;101970.00;1891743;76;26690;-74
2021/05/03 03:33:33;;;;;;;7.90;6.17;;;;;;;7.57;100.00;101964.61;1891843;76;26256;-74
2021/05/03 03:36:03;;;;;;;8.23;6.00;;;;;;;7.60;100.00;101967.73;1891732;76;26618;-74
2021/05/03 03:38:33;;;;;;;7.33;6.00;;;;;;;7.61;100.00;101956.98;1891894;76;26268;-74
2021/05/03 03:41:04;;;;;;;6.80;6.17;;;;;;;7.57;100.00;101954.94;1891933;76;26189;-74
2021/05/03 03:43:34;;;;;;;7.77;5.83;;;;;;;7.66;100.00;101957.62;1891935;76;26295;-74
2021/05/03 03:46:04;;;;;;;6.30;5.70;;;;;;;7.55;100.00;101957.92;1891852;76;26178;-74
2021/05/03 03:48:34;;;;;;;6.97;5.77;;;;;;;7.53;100.00;101957.30;1891719;76;26182;-73
2021/05/03 03:51:05;;;;;;;8.03;5.87;;;;;;;7.60;100.00;101956.67;1891851;76;26263;-74
2021/05/03 03:53:35;;;;;;;7.23;6.50;;;;;;;7.50;100.00;101956.95;1891826;76;26264;-74
2021/05/03 03:56:23;;;;;;;7.27;6.40;;;;;;;7.57;100.00;101948.02;1804749;79;33374;-74
2021/05/03 03:58:53;;;;;;;7.00;6.20;;;;;;;7.58;100.00;101957.98;1766969;81;26397;-74
2021/05/03 04:01:24;;;;;;;6.80;6.10;;;;;;;7.55;100.00;101959.30;1732450;81;930632;-74
2021/05/03 04:03:58;;;;;;;6.80;6.10;;;;;;;7.64;100.00;101955.66;1773611;80;26361;-74
2021/05/03 04:06:35;;;;;;;6.90;6.20;;;;;;;7.66;100.00;101961.77;1778213;78;26263;-74
2021/05/03 04:09:07;;;;;;;7.60;6.17;;;;;;;7.56;100.00;101956.85;1776674;79;26615;-74
2021/05/03 04:11:49;;;;;;;7.10;6.40;;;;;;;7.46;100.00;101961.27;1776109;79;26782;-74
2021/05/03 04:22:49;;;;;;;7.53;6.70;;;;;;;7.38;100.00;101958.85;1740576;82;26832;-73
2021/05/03 04:25:17;;;;;;;8.73;6.63;;;;;;;7.42;100.00;101957.30;1775459;81;26298;-74
2021/05/03 04:27:46;;;;;;;7.67;6.87;;;;;;;7.36;100.00;101958.27;1850601;75;26263;-74
2021/05/03 04:30:18;;;;;;;7.53;6.23;;;;;;;7.49;100.00;101960.78;1877043;76;26339;-73
2021/05/03 04:32:48;;;;;;;7.90;6.63;;;;;;;7.28;100.00;101954.73;1884059;76;26205;-74
2021/05/03 04:35:18;;;;;;;8.50;6.17;;;;;;;7.36;100.00;101952.17;1884213;76;26201;-74
2021/05/03 04:37:48;;;;;;;7.73;6.43;;;;;;;7.10;100.00;101957.56;1891033;76;26655;-74
2021/05/03 04:40:18;;;;;;;7.77;6.20;;;;;;;6.98;100.00;101963.59;1892008;76;26189;-74
2021/05/03 04:42:47;;;;;;;7.50;6.03;;;;;;;6.98;100.00;101964.97;1891935;76;26198;-74
2021/05/03 04:45:17;;;;;;;7.40;6.20;;;;;;;7.12;100.00;101962.33;1891933;76;26705;-74
2021/05/03 04:47:47;;;;;;;7.33;5.97;;;;;;;7.08;100.00;101963.88;1891978;76;26197;-74
2021/05/03 04:50:17;;;;;;;7.17;6.20;;;;;;;6.91;100.00;101953.19;1892079;76;26313;-74
2021/05/03 04:52:47;;;;;;;7.03;6.20;;;;;;;6.93;100.00;101945.48;1892050;76;26786;-74
2021/05/03 04:55:16;;;;;;;7.50;6.70;;;;;;;6.86;100.00;101957.17;1892160;76;26273;-74
2021/05/03 04:57:46;;;;;;;10.00;6.90;;;;;;;7.04;100.00;101953.53;1892152;76;26301;-74
2021/05/03 05:00:17;;;;;;;7.53;6.83;;;;;;;6.99;100.00;101947.86;1892084;76;26647;-74
2021/05/03 05:02:47;;;;;;;7.90;6.60;;;;;;;6.91;100.00;101949.05;1892032;74;26218;-74
2021/05/03 05:05:17;;;;;;;8.50;6.87;;;;;;;6.82;100.00;101949.06;1892179;76;26743;-74
2021/05/03 05:07:47;;;;;;;7.73;6.93;;;;;;;6.93;100.00;101950.20;1892009;76;26197;-75
2021/05/03 05:10:17;;;;;;;9.40;7.63;;;;;;;6.95;100.00;101944.73;1891904;76;26583;-75
2021/05/03 05:12:47;;;;;;;7.90;6.97;;;;;;;6.97;100.00;101947.27;1892141;76;26309;-75
2021/05/03 05:15:18;;;;;;;7.90;7.10;;;;;;;6.98;100.00;101947.55;1892046;76;26178;-74
2021/05/03 05:17:49;;;;;;;7.97;7.17;;;;;;;7.05;100.00;101947.78;1892208;75;26590;-74
2021/05/03 05:20:21;;;;;;;9.40;7.43;;;;;;;6.90;100.00;101950.11;1891984;76;26642;-74
2021/05/03 05:22:50;;;;;;;9.13;7.40;;;;;;;7.01;100.00;101953.47;1891980;76;26283;-74
2021/05/03 05:25:20;;;;;;;8.27;7.23;;;;;;;6.99;100.00;101956.15;1891999;76;26183;-74
2021/05/03 05:27:50;;;;;;;8.00;6.83;;;;;;;7.02;100.00;101952.37;1892101;76;26206;-74
2021/05/03 05:30:21;;;;;;;9.87;8.23;;;;;;;6.89;100.00;101959.47;1879379;76;26380;-74
2021/05/03 05:32:51;;;;;;;8.00;7.20;;;;;;;7.06;100.00;101950.01;1884253;76;26640;-74
2021/05/03 05:35:20;;;;;;;9.63;7.80;;;;;;;7.06;100.00;101950.83;1890596;76;26225;-74
2021/05/03 05:37:50;;;;;;;9.23;8.30;;;;;;;7.11;100.00;101952.88;1892222;76;26268;-74
2021/05/03 05:40:20;;;;;;;10.57;8.23;;;;;;;6.96;100.00;101954.71;1892085;76;26178;-73
2021/05/03 05:42:50;;;;;;;9.23;7.93;;;;;;;7.07;100.00;101947.53;1892000;76;26174;-74
2021/05/03 05:45:19;;;;;;;10.37;8.53;;;;;;;7.14;100.00;101942.77;1892017;76;26617;-74
2021/05/03 05:47:49;;;;;;;10.20;8.60;;;;;;;7.32;100.00;101946.81;1891979;76;26190;-74
2021/05/03 05:50:19;;;;;;;8.67;7.77;;;;;;;7.39;100.00;101943.95;1891992;76;26182;-74
2021/05/03 05:52:49;;;;;;;9.07;8.17;;;;;;;7.33;100.00;101947.12;1891974;76;26666;-74
2021/05/03 05:55:19;;;;;;;10.00;9.00;;;;;;;7.57;100.00;101941.92;1892116;76;26219;-74
2021/05/03 05:57:49;;;;;;;11.67;7.97;;;;;;;7.60;100.00;101942.85;1891958;76;26607;-74
2021/05/03 06:00:20;;;;;;;10.70;8.20;;;;;;;7.63;100.00;101934.60;1892090;76;26203;-74
2021/05/03 06:02:50;;;;;;;10.30;8.63;;;;;;;7.91;100.00;101926.98;1891863;74;26740;-74
2021/05/03 06:05:21;;;;;;;8.47;7.40;;;;;;;8.03;100.00;101913.98;1892084;76;26717;-74
2021/05/03 06:07:51;;;;;;;9.03;7.77;;;;;;;8.03;100.00;101917.59;1892040;76;26260;-74
2021/05/03 06:10:21;;;;;;;10.17;8.37;;;;;;;8.17;100.00;101912.65;1891907;76;26170;-74
2021/05/03 06:12:51;;;;;;;8.70;7.80;;;;;;;8.15;100.00;101905.11;1891906;76;26630;-74
2021/05/03 06:15:21;;;;;;;9.57;8.10;;;;;;;8.29;100.00;101902.42;1892115;76;26261;-74
2021/05/03 06:17:51;;;;;;;8.13;7.33;;;;;;;8.35;100.00;101900.58;1891926;76;26589;-75
2021/05/03 06:20:21;;;;;;;9.40;8.50;;;;;;;8.41;100.00;101898.22;1891909;76;26758;-75
2021/05/03 06:22:58;;;;;;;9.73;7.90;;;;;;;8.44;100.00;101899.95;1891869;76;26190;-74
2021/05/03 06:25:34;;;;;;;8.70;7.50;;;;;;;8.63;100.00;101899.23;1891920;76;26267;-77
2021/05/03 06:28:05;;;;;;;7.93;7.13;;;;;;;8.80;100.00;101892.36;1892008;76;26704;-77
2021/05/03 06:30:35;;;;;;;9.57;6.90;;;;;;;8.88;100.00;101885.88;1885100;76;26285;-78
2021/05/03 06:33:05;;;;;;;9.10;7.57;;;;;;;9.00;100.00;101890.80;1872488;76;26624;-76
2021/05/03 06:35:35;;;;;;;8.27;7.30;;;;;;;9.09;100.00;101889.84;1872307;77;26193;-77
2021/05/03 06:38:06;;;;;;;9.67;7.10;;;;;;;9.29;100.00;101889.34;1872235;77;26687;-75
2021/05/03 06:40:36;;;;;;;7.13;6.43;;;;;;;9.36;100.00;101884.50;1872323;77;26605;-75
2021/05/03 06:43:06;;;;;;;7.13;6.43;;;;;;;9.41;100.00;101881.81;1872136;77;26271;-74
2021/05/03 06:45:35;;;;;;;7.50;6.80;;;;;;;9.46;100.00;101882.72;1872429;77;26193;-74
2021/05/03 06:48:09;;;;;;;7.63;6.37;;;;;;;9.52;100.00;101878.09;1872281;77;26214;-75
2021/05/03 06:50:41;;;;;;;8.33;6.10;;;;;;;9.60;100.00;101877.67;1872133;77;26201;-75
2021/05/03 06:53:11;;;;;;;7.50;5.90;;;;;;;9.66;100.00;101875.28;1828587;78;26235;-74
2021/05/03 06:55:41;;;;;;;7.47;6.43;;;;;;;9.73;100.00;101869.00;1872200;77;26201;-75
2021/05/03 06:58:11;;;;;;;6.37;5.77;;;;;;;9.79;100.00;101869.38;1872339;77;26695;-75
2021/05/03 07:00:42;;;;;;;7.57;6.33;;;;;;;9.75;100.00;101869.59;1872220;77;26271;-74
2021/05/03 07:03:13;;;;;;;6.70;6.00;;;;;;;9.91;100.00;101872.03;1872124;75;26235;-74
2021/05/03 07:05:43;;;;;;;6.83;5.80;;;;;;;10.04;100.00;101868.89;1872242;77;26695;-77
2021/05/03 07:08:13;;;;;;;6.67;5.87;;;;;;;10.05;100.00;101858.08;1872459;77;26294;-74
2021/05/03 07:10:44;;;;;;;6.80;5.77;;;;;;;10.12;100.00;101860.66;1872477;77;26278;-75
2021/05/03 07:13:14;;;;;;;6.87;5.07;;;;;;;10.14;100.00;101855.12;1872399;77;26676;-74
2021/05/03 07:15:44;;;;;;;7.47;5.23;;;;;;;10.35;100.00;101855.73;1872272;77;26245;-74
2021/05/03 07:18:14;;;;;;;6.57;5.03;;;;;;;10.41;100.00;101850.51;1872365;77;26765;-74
2021/05/03 07:20:44;;;;;;;6.60;4.97;;;;;;;10.56;100.00;101846.23;1872395;77;26193;-74
2021/05/03 07:23:14;;;;;;;6.20;4.50;;;;;;;10.57;100.00;101842.36;1872453;77;26185;-76
2021/05/03 07:25:44;;;;;;;6.10;4.47;;;;;;;10.63;100.00;101844.08;1872467;77;26186;-74
2021/05/03 07:28:14;;;;;;;5.10;4.60;;;;;;;10.66;100.00;101843.55;1872147;77;26194;-74
2021/05/03 07:30:44;;;;;;;5.17;4.40;;;;;;;10.82;100.00;101844.02;1872198;75;26256;-76
2021/05/03 07:33:14;;;;;;;5.80;4.00;;;;;;;10.85;100.00;101842.09;1872422;77;26241;-74
2021/05/03 07:35:44;;;;;;;3.70;3.40;;;;;;;10.87;100.00;101837.94;1872321;77;26190;-74
2021/05/03 07:38:13;;;;;;;4.10;3.40;;;;;;;10.86;100.00;101835.44;1872356;77;26186;-74
2021/05/03 07:40:44;;;;;;;5.70;3.50;;;;;;;10.84;100.00;101832.91;1872407;77;26200;-74
2021/05/03 07:43:14;;;;;;;3.67;3.37;;;;;;;11.00;100.00;101830.27;1872557;77;26294;-74
2021/05/03 07:45:44;;;;;;;5.23;3.70;;;;;;;11.09;100.00;101823.12;1872307;77;26727;-75
2021/05/03 07:48:14;;;;;;;3.77;3.43;;;;;;;11.33;100.00;101833.64;1872368;77;26473;-74
2021/05/03 07:50:44;;;;;;;4.57;3.23;;;;;;;11.39;100.00;101819.19;1872171;77;26743;-74
2021/05/03 07:53:13;;;;;;;4.23;3.23;;;;;;;11.30;100.00;101820.23;1872390;77;26194;-74
2021/05/03 07:55:43;;;;;;;3.70;3.40;;;;;;;11.38;100.00;101811.39;1872216;77;26278;-74
2021/05/03 07:58:13;;;;;;;3.70;3.40;;;;;;;11.44;100.00;101809.50;1872208;77;26664;-73
2021/05/03 08:00:43;;;;;;;3.37;3.07;;;;;;;11.40;100.00;101800.01;1872277;77;26205;-72
2021/05/03 08:03:13;;;;;;;3.87;3.13;;;;;;;11.46;100.00;101804.52;1872225;75;26319;-73
2021/05/03 08:05:43;;;;;;;4.67;3.50;;;;;;;11.60;100.00;101793.73;1872094;77;26271;-73
2021/05/03 08:08:13;;;;;;;3.67;3.37;;;;;;;11.65;100.00;101800.72;1872233;77;26271;-74
2021/05/03 08:10:42;;;;;;;6.40;3.60;;;;;;;11.69;100.00;101797.13;1872198;77;26209;-72
2021/05/03 08:13:12;;;;;;;3.50;3.20;;;;;;;11.86;100.00;101798.36;1872073;77;26761;-73
2021/05/03 08:15:47;;;;;;;3.53;3.23;;;;;;;11.77;100.00;101786.91;1872262;77;26309;-75
2021/05/03 08:18:14;;;;;;;3.77;3.37;;;;;;;11.96;100.00;101782.27;1872527;75;26271;-75
2021/05/03 08:20:43;;;;;;;3.33;2.83;;;;;;;11.97;100.00;101776.44;1872345;77;26672;-74
2021/05/03 08:23:19;;;;;;;4.17;3.43;;;;;;;12.06;100.00;101769.79;1872329;77;26197;-73
2021/05/03 08:25:45;;;;;;;2.97;2.70;;;;;;;12.17;100.00;101763.13;1872612;75;26252;-74
2021/05/03 08:28:15;;;;;;;3.20;2.90;;;;;;;12.60;100.00;101757.66;1872216;77;26644;-75
2021/05/03 08:30:46;;;;;;;3.63;3.13;;;;;;;12.48;100.00;101741.77;1872169;77;26342;-74
2021/05/03 08:33:17;;;;;;;3.23;2.93;;;;;;;12.53;100.00;101744.56;1876003;75;26241;-74
2021/05/03 08:35:47;;;;;;;3.87;2.50;;;;;;;12.41;100.00;101734.23;1891808;76;26259;-74
2021/05/03 08:38:19;;;;;;;3.00;2.70;;;;;;;12.48;100.00;101732.01;1891848;76;26171;-74
2021/05/03 08:40:48;;;;;;;2.87;2.57;;;;;;;12.41;100.00;101716.94;1891838;76;26197;-74
2021/05/03 08:43:18;;;;;;;2.73;2.43;;;;;;;12.39;100.00;101716.94;1891932;76;26221;-73
2021/05/03 08:45:48;;;;;;;2.60;2.40;;;;;;;12.49;100.00;101712.78;1892058;76;26666;-73
2021/05/03 08:48:21;;;;;;;3.63;2.70;;;;;;;12.27;100.00;101708.30;1891869;76;26186;-73
2021/05/03 08:50:55;;;;;;;2.17;1.97;;;;;;;12.37;100.00;101703.83;1892031;76;26341;-74
2021/05/03 08:53:29;;;;;;;2.53;2.03;;;;;;;12.42;100.00;101706.08;1891907;76;26170;-74
2021/05/03 08:55:58;;;;;;;9.57;2.17;;;;;;;12.51;100.00;101710.55;1892120;76;26272;-74
2021/05/03 08:58:29;;;;;;;1.83;1.73;;;;;;;12.65;100.00;101711.68;1892118;76;26674;-75
2021/05/03 09:00:59;;;;;;;3.17;2.00;;;;;;;12.43;100.00;101698.55;1891929;76;26191;-76
2021/05/03 09:03:30;;;;;;;3.37;2.20;;;;;;;12.51;100.00;101699.40;1892016;74;26225;-77
2021/05/03 09:06:06;;;;;;;1.77;1.67;;;;;;;12.75;100.00;101687.41;1891919;76;26174;-73
2021/05/03 09:08:36;;;;;;;3.63;1.80;;;;;;;12.81;100.00;101682.67;1892040;76;26692;-75
2021/05/03 09:11:07;;;;;;;2.77;1.67;;;;;;;13.35;100.00;101686.26;1891983;76;26198;-75
2021/05/03 09:13:39;;;;;;;8.73;2.33;;;;;;;14.10;100.00;101665.52;1891976;76;26308;-73
2021/05/03 09:16:22;;;;;;;2.17;1.93;;;;;;;14.64;100.00;101661.78;1891960;76;26181;-72
2021/05/03 09:18:52;;;;;;;2.60;1.53;;;;;;;14.24;100.00;101664.31;1892038;76;26207;-72
2021/05/03 09:21:27;;;;;;;3.90;1.70;;;;;;;13.37;100.00;101648.56;1892039;76;26280;-70
2021/05/03 09:24:12;;;;;;;3.27;1.97;;;;;;;13.45;100.00;101647.97;1891846;74;26657;-72
2021/05/03 09:26:46;;;;;;;2.40;2.00;;;;;;;13.35;100.00;101649.98;1891910;76;26287;-72
2021/05/03 09:29:37;;;;;;;2.60;1.80;;;;;;;13.29;100.00;101644.97;1891924;76;26181;-72
2021/05/03 09:32:10;;;;;;;2.53;1.77;;;;;;;13.30;100.00;101641.62;1890767;76;26296;-72
2021/05/03 09:34:43;;;;;;;1.67;1.57;;;;;;;13.57;100.00;101631.72;1872279;77;26236;-72
2021/05/03 09:37:39;;;;;;;2.53;1.80;;;;;;;13.48;100.00;101627.02;1872366;77;26283;-72
2021/05/03 09:40:14;;;;;;;3.33;1.67;;;;;;;13.60;100.00;101614.42;1872248;77;26652;-73
2021/05/03 09:42:50;;;;;;;4.37;1.77;;;;;;;13.48;100.00;101608.88;1872517;77;26197;-72
2021/05/03 09:45:22;;;;;;;1.90;1.80;;;;;;;13.88;100.00;101598.05;1872215;77;26213;-72
2021/05/03 09:47:54;;;;;;;2.10;1.70;;;;;;;14.03;100.00;101597.97;1872423;77;26282;-72
2021/05/03 09:50:26;;;;;;;5.60;1.90;;;;;;;14.08;100.00;101590.92;1872137;77;26205;-72
2021/05/03 09:53:05;;;;;;;1.13;1.10;;;;;;;14.44;100.00;101585.92;1872334;76;26637;-73
2021/05/03 09:55:38;;;;;;;2.27;1.50;;;;;;;14.29;100.00;101584.05;1872329;77;26379;-72
2021/05/03 09:58:28;;;;;;;1.70;1.60;;;;;;;14.29;100.00;101570.66;1872276;77;26197;-72
2021/05/03 10:00:58;;;;;;;1.40;1.30;;;;;;;14.05;100.00;101576.14;1872288;77;26286;-72
2021/05/03 10:03:38;;;;;;;1.50;1.40;;;;;;;14.44;100.00;101559.36;1872181;75;26240;-72
2021/05/03 10:06:10;;;;;;;1.50;1.20;;;;;;;14.30;100.00;101550.78;1872276;77;26201;-72
2021/05/03 10:08:43;;;;;;;1.73;1.40;;;;;;;14.45;100.00;101543.70;1872132;77;26291;-73
2021/05/03 10:11:15;;;;;;;2.10;1.30;;;;;;;14.73;100.00;101533.62;1872355;77;26213;-72
2021/05/03 10:13:47;;;;;;;1.83;1.20;;;;;;;14.34;100.00;101530.06;1872390;77;26251;-72
2021/05/03 10:16:19;;;;;;;2.67;1.40;;;;;;;14.23;100.00;101528.50;1872253;77;26746;-72
2021/05/03 10:18:49;;;;;;;1.60;1.17;;;;;;;14.42;100.00;101523.31;1872318;77;26664;-72
2021/05/03 10:21:19;;;;;;;3.70;1.30;;;;;;;14.40;100.00;101513.56;1872342;77;26637;-72
2021/05/03 10:23:49;;;;;;;2.60;1.30;;;;;;;14.52;100.00;101523.22;1872229;77;26213;-72
2021/05/03 10:26:19;;;;;;;2.30;1.30;;;;;;;14.26;100.00;101521.76;1872435;77;26307;-72
2021/05/03 10:28:54;;;;;;;3.00;1.40;;;;;;;14.43;100.00;101503.18;1872256;77;26264;-72
2021/05/03 10:31:25;;;;;;;1.83;1.30;;;;;;;14.23;100.00;101508.38;1872267;77;26213;-71
2021/05/03 10:33:55;;;;;;;1.50;1.40;;;;;;;14.28;100.00;101496.33;1872124;77;26277;-72
2021/05/03 10:36:36;;;;;;;2.00;1.33;;;;;;;14.23;100.00;101495.81;1872229;77;26702;-72
2021/05/03 10:39:28;;;;;;;2.00;1.47;;;;;;;14.65;100.00;101488.13;1872157;77;26318;-72
2021/05/03 10:42:07;;;;;;;4.20;1.67;;;;;;;14.78;100.00;101479.03;1871681;76;26205;-72
2021/05/03 10:44:39;;;;;;;2.60;1.40;;;;;;;15.01;100.00;101463.36;1872297;77;26777;-72
2021/05/03 10:47:33;;;;;;;2.17;1.33;;;;;;;15.15;100.00;101458.67;1872524;77;26195;-71
2021/05/03 10:50:00;;;;;;;3.57;1.40;;;;;;;14.87;100.00;101455.42;1872436;75;26649;-72
2021/05/03 10:52:37;;;;;;;2.00;1.30;;;;;;;14.81;100.00;101460.23;1872337;77;26274;-71
2021/05/03 10:55:07;;;;;;;1.80;1.30;;;;;;;14.82;100.00;101461.08;1872463;77;26636;-72
2021/05/03 10:57:40;;;;;;;1.90;1.40;;;;;;;14.81;100.00;101455.20;1872444;77;26258;-71
2021/05/03 11:00:30;;;;;;;3.33;1.40;;;;;;;14.83;100.00;101459.39;1872162;77;26205;-71
2021/05/03 11:03:01;;;;;;;3.80;1.30;;;;;;;14.81;100.00;101439.27;1872244;75;26238;-71
2021/05/03 11:05:32;;;;;;;3.50;1.30;;;;;;;14.62;100.00;101443.16;1872227;77;26664;-71
2021/05/03 11:08:33;;;;;;;3.23;1.23;;;;;;;14.63;99.38;101428.89;1872206;77;26637;-71
2021/05/03 11:11:08;;;;;;;3.57;1.10;;;;;;;14.75;97.85;101434.05;1872232;77;26668;-71
2021/05/03 11:13:57;;;;;;;1.87;1.37;;;;;;;14.78;99.15;101430.08;1872182;77;26201;-71
2021/05/03 11:16:56;;;;;;;3.80;1.20;;;;;;;15.12;100.00;101441.09;1872443;75;26673;-72
2021/05/03 11:19:34;;;;;;;3.00;1.30;;;;;;;15.21;100.00;101425.86;1872216;77;26244;-71
2021/05/03 11:22:05;;;;;;;1.13;1.03;;;;;;;15.12;100.00;101419.27;1872202;77;26185;-72
2021/05/03 11:24:37;;;;;;;2.43;1.20;;;;;;;15.14;99.39;101413.66;1872052;77;26197;-71
2021/05/03 11:27:10;;;;;;;2.37;1.17;;;;;;;15.30;100.00;101407.25;1872145;76;26204;-72
2021/05/03 11:29:42;;;;;;;2.63;1.30;;;;;;;15.31;95.70;101414.52;1872063;77;26205;-71
2021/05/03 11:32:11;;;;;;;2.73;1.50;;;;;;;15.11;96.63;101411.44;1872169;75;26205;-71
2021/05/03 11:34:54;;;;;;;3.00;1.83;;;;;;;14.97;95.72;101395.16;1883132;76;26331;-72
2021/05/03 11:37:29;;;;;;;3.67;2.13;;;;;;;14.74;97.96;101403.84;1890733;74;26252;-71
2021/05/03 11:40:01;;;;;;;1.60;1.50;;;;;;;14.66;100.00;101411.50;1890783;74;26252;-72
2021/05/03 11:42:52;;;;;;;3.80;1.70;;;;;;;14.67;100.00;101395.56;1890947;74;26293;-71
2021/05/03 11:45:16;;;;;;;3.03;2.03;;;;;;;14.71;100.00;101389.08;1889685;74;26211;-72
2021/05/03 11:47:46;;;;;;;9.37;2.00;;;;;;;14.71;100.00;101380.69;1891712;76;26369;-72
2021/05/03 11:50:22;;;;;;;1.67;1.50;;;;;;;14.82;100.00;101378.00;1891792;76;26266;-72